Meishomaru — JD3044 — position and weather

sailwx.info

Track history (hours):
 
Tides and Currents Weather Stations Pressure Air Temp Water Temp Dewpoint Dewpoint Depression Visibility Wind Speed Wind Dir Waves Ship Positions

Meishomaru

Last reported at 2017-Jan-17 20:33 UTC. Time now 2017-Jan-17 21:27 UTC.
Position N 35°30' E 140°01'.

Length 68 m; draft 2.6 m.

Type: Tanker. MMSI: 431001216.

Date/timePositionNaut miles runAvg speedWind from/ knotsBaromVisibWave heightAir tempDewpointWater temp
2017-Jan-17 20:33N 35°30' E 140°01'0 0.0
2017-Jan-17 19:33N 35°30' E 140°01'0 0.0
2017-Jan-17 18:24N 35°30' E 140°01'0 0.0
2017-Jan-17 15:09N 35°30' E 140°00'0 0.0
2017-Jan-17 13:12N 35°30' E 140°00'0 0.0
2017-Jan-17 08:18N 35°30' E 140°00'911.9
2017-Jan-17 07:34N 35°30' E 139°49'3 3.0
2017-Jan-17 06:31N 35°31' E 139°46'0 0.0
2017-Jan-17 05:31N 35°31' E 139°46'0 0.0
2017-Jan-17 04:31N 35°31' E 139°46'0 0.0
2017-Jan-17 03:31N 35°31' E 139°46'0 0.0
2017-Jan-17 02:33N 35°31' E 139°46'3 2.6
2017-Jan-17 01:25N 35°29' E 139°49'0 0.0
2017-Jan-17 00:31N 35°29' E 139°49'0 0.0
2017-Jan-16 23:28N 35°29' E 139°49'0 0.1
2017-Jan-16 22:31N 35°29' E 139°49'0 0.0
2017-Jan-16 21:31N 35°29' E 139°49'0 0.0
2017-Jan-16 20:31N 35°29' E 139°49'0 0.0
2017-Jan-16 19:31N 35°29' E 139°49'0 0.0
2017-Jan-16 18:31N 35°29' E 139°49'0 0.0
2017-Jan-16 17:31N 35°29' E 139°49'0 0.0
2017-Jan-16 16:31N 35°29' E 139°49'0 0.0
2017-Jan-16 15:31N 35°29' E 139°49'0 0.0
2017-Jan-16 14:31N 35°29' E 139°49'0 0.0
2017-Jan-16 13:31N 35°29' E 139°49'0 0.0
2017-Jan-16 12:28N 35°29' E 139°49'0 0.0
2017-Jan-16 11:31N 35°29' E 139°49'0 0.0
2017-Jan-16 10:31N 35°29' E 139°49'0 0.0
2017-Jan-16 09:31N 35°29' E 139°49'0 0.0
2017-Jan-16 08:31N 35°29' E 139°49'0 0.0
2017-Jan-16 07:31N 35°29' E 139°49'0 0.0
2017-Jan-16 06:31N 35°29' E 139°49'0 0.0
2017-Jan-16 05:31N 35°29' E 139°49'0 0.1
2017-Jan-16 04:31N 35°29' E 139°49'1 1.1
2017-Jan-16 03:33N 35°29' E 139°50'10 9.5
2017-Jan-16 02:32N 35°30' E 140°02'0 0.0
2017-Jan-15 23:13N 35°30' E 140°02'3 4.1
2017-Jan-15 22:33N 35°31' E 139°59'5 4.9
2017-Jan-15 21:28N 35°36' E 139°55'0 0.0
2017-Jan-15 20:31N 35°36' E 139°55'0 0.0
2017-Jan-15 19:28N 35°36' E 139°55'0 0.0
2017-Jan-15 18:31N 35°36' E 139°55'0 0.0
2017-Jan-15 17:31N 35°36' E 139°55'0 0.0
2017-Jan-15 16:31N 35°36' E 139°55'0 0.0
2017-Jan-15 15:31N 35°36' E 139°55'0 0.0
2017-Jan-15 14:28N 35°36' E 139°55'0 0.1
2017-Jan-15 13:28N 35°36' E 139°55'0 0.0
2017-Jan-15 10:31N 35°36' E 139°55'0 0.0
2017-Jan-15 09:16N 35°36' E 139°55'0 0.1
2017-Jan-15 08:31N 35°36' E 139°55'0 0.0
2017-Jan-15 07:31N 35°36' E 139°55'0 0.0
2017-Jan-15 06:28N 35°36' E 139°55'0 0.0
2017-Jan-15 05:28N 35°36' E 139°55'0 0.0
2017-Jan-15 04:31N 35°36' E 139°55'0 0.0
2017-Jan-15 03:28N 35°36' E 139°55'0 0.0
2017-Jan-15 02:31N 35°36' E 139°55'0 0.0
2017-Jan-15 01:31N 35°36' E 139°55'0 0.0
2017-Jan-15 00:31N 35°36' E 139°55'0 0.0
2017-Jan-14 23:31N 35°36' E 139°55'0 0.0
2017-Jan-14 22:28N 35°36' E 139°55'0 0.0
2017-Jan-14 21:31N 35°36' E 139°55'0 0.0
2017-Jan-14 20:31N 35°36' E 139°55'0 0.0
2017-Jan-14 19:25N 35°36' E 139°55'0 0.0
2017-Jan-14 18:31N 35°36' E 139°55'0 0.0
2017-Jan-14 17:31N 35°36' E 139°55'0 0.0
2017-Jan-14 16:28N 35°36' E 139°55'0 0.0
2017-Jan-14 15:31N 35°36' E 139°55'0 0.0
2017-Jan-14 14:31N 35°36' E 139°55'0 0.0
2017-Jan-14 12:28N 35°36' E 139°55'0 0.0
2017-Jan-14 11:31N 35°36' E 139°55'0 0.0
2017-Jan-14 08:16N 35°36' E 139°55'0 0.0
2017-Jan-14 07:22N 35°36' E 139°55'0 0.0
2017-Jan-14 06:19N 35°36' E 139°55'2 2.8
2017-Jan-14 05:34N 35°33' E 139°54'1111.3
2017-Jan-14 04:34N 35°26' E 139°44'4 4.4
2017-Jan-14 03:34N 35°25' E 139°39'0 0.0
2017-Jan-13 23:33N 35°25' E 139°39'2 2.3
2017-Jan-13 22:33N 35°23' E 139°40'0 0.0
2017-Jan-13 21:33N 35°23' E 139°40'0 0.0
2017-Jan-13 20:30N 35°23' E 139°40'0 0.1
2017-Jan-13 19:33N 35°23' E 139°40'1110.7
2017-Jan-13 18:33N 35°14' E 139°47'  
Track history (hours):
 
Tides and Currents Weather Stations Pressure Air Temp Water Temp Dewpoint Dewpoint Depression Visibility Wind Speed Wind Dir Waves Ship Positions

Meishomaru

Last reported at 2017-Jan-17 20:33 UTC. Time now 2017-Jan-17 21:27 UTC.
Position N 35°30' E 140°01'.

Length 68 m; draft 2.6 m.

Type: Tanker. MMSI: 431001216.

Date/timePositionNaut miles runAvg speedWind from/ knotsBaromVisibWave heightAir tempDewpointWater temp
2017-Jan-17 20:33N 35°30' E 140°01'0 0.0
2017-Jan-17 19:33N 35°30' E 140°01'0 0.0
2017-Jan-17 18:24N 35°30' E 140°01'0 0.0
2017-Jan-17 15:09N 35°30' E 140°00'0 0.0
2017-Jan-17 13:12N 35°30' E 140°00'0 0.0
2017-Jan-17 08:18N 35°30' E 140°00'911.9
2017-Jan-17 07:34N 35°30' E 139°49'3 3.0
2017-Jan-17 06:31N 35°31' E 139°46'0 0.0
2017-Jan-17 05:31N 35°31' E 139°46'0 0.0
2017-Jan-17 04:31N 35°31' E 139°46'0 0.0
2017-Jan-17 03:31N 35°31' E 139°46'0 0.0
2017-Jan-17 02:33N 35°31' E 139°46'3 2.6
2017-Jan-17 01:25N 35°29' E 139°49'0 0.0
2017-Jan-17 00:31N 35°29' E 139°49'0 0.0
2017-Jan-16 23:28N 35°29' E 139°49'0 0.1
2017-Jan-16 22:31N 35°29' E 139°49'0 0.0
2017-Jan-16 21:31N 35°29' E 139°49'0 0.0
2017-Jan-16 20:31N 35°29' E 139°49'0 0.0
2017-Jan-16 19:31N 35°29' E 139°49'0 0.0
2017-Jan-16 18:31N 35°29' E 139°49'0 0.0
2017-Jan-16 17:31N 35°29' E 139°49'0 0.0
2017-Jan-16 16:31N 35°29' E 139°49'0 0.0
2017-Jan-16 15:31N 35°29' E 139°49'0 0.0
2017-Jan-16 14:31N 35°29' E 139°49'0 0.0
2017-Jan-16 13:31N 35°29' E 139°49'0 0.0
2017-Jan-16 12:28N 35°29' E 139°49'0 0.0
2017-Jan-16 11:31N 35°29' E 139°49'0 0.0
2017-Jan-16 10:31N 35°29' E 139°49'0 0.0
2017-Jan-16 09:31N 35°29' E 139°49'0 0.0
2017-Jan-16 08:31N 35°29' E 139°49'0 0.0
2017-Jan-16 07:31N 35°29' E 139°49'0 0.0
2017-Jan-16 06:31N 35°29' E 139°49'0 0.0
2017-Jan-16 05:31N 35°29' E 139°49'0 0.1
2017-Jan-16 04:31N 35°29' E 139°49'1 1.1
2017-Jan-16 03:33N 35°29' E 139°50'10 9.5
2017-Jan-16 02:32N 35°30' E 140°02'0 0.0
2017-Jan-15 23:13N 35°30' E 140°02'3 4.1
2017-Jan-15 22:33N 35°31' E 139°59'5 4.9
2017-Jan-15 21:28N 35°36' E 139°55'0 0.0
2017-Jan-15 20:31N 35°36' E 139°55'0 0.0
2017-Jan-15 19:28N 35°36' E 139°55'0 0.0
2017-Jan-15 18:31N 35°36' E 139°55'0 0.0
2017-Jan-15 17:31N 35°36' E 139°55'0 0.0
2017-Jan-15 16:31N 35°36' E 139°55'0 0.0
2017-Jan-15 15:31N 35°36' E 139°55'0 0.0
2017-Jan-15 14:28N 35°36' E 139°55'0 0.1
2017-Jan-15 13:28N 35°36' E 139°55'0 0.0
2017-Jan-15 10:31N 35°36' E 139°55'0 0.0
2017-Jan-15 09:16N 35°36' E 139°55'0 0.1
2017-Jan-15 08:31N 35°36' E 139°55'0 0.0
2017-Jan-15 07:31N 35°36' E 139°55'0 0.0
2017-Jan-15 06:28N 35°36' E 139°55'0 0.0
2017-Jan-15 05:28N 35°36' E 139°55'0 0.0
2017-Jan-15 04:31N 35°36' E 139°55'0 0.0
2017-Jan-15 03:28N 35°36' E 139°55'0 0.0
2017-Jan-15 02:31N 35°36' E 139°55'0 0.0
2017-Jan-15 01:31N 35°36' E 139°55'0 0.0
2017-Jan-15 00:31N 35°36' E 139°55'0 0.0
2017-Jan-14 23:31N 35°36' E 139°55'0 0.0
2017-Jan-14 22:28N 35°36' E 139°55'0 0.0
2017-Jan-14 21:31N 35°36' E 139°55'0 0.0
2017-Jan-14 20:31N 35°36' E 139°55'0 0.0
2017-Jan-14 19:25N 35°36' E 139°55'0 0.0
2017-Jan-14 18:31N 35°36' E 139°55'0 0.0
2017-Jan-14 17:31N 35°36' E 139°55'0 0.0
2017-Jan-14 16:28N 35°36' E 139°55'0 0.0
2017-Jan-14 15:31N 35°36' E 139°55'0 0.0
2017-Jan-14 14:31N 35°36' E 139°55'0 0.0
2017-Jan-14 12:28N 35°36' E 139°55'0 0.0
2017-Jan-14 11:31N 35°36' E 139°55'0 0.0
2017-Jan-14 08:16N 35°36' E 139°55'0 0.0
2017-Jan-14 07:22N 35°36' E 139°55'0 0.0
2017-Jan-14 06:19N 35°36' E 139°55'2 2.8
2017-Jan-14 05:34N 35°33' E 139°54'1111.3
2017-Jan-14 04:34N 35°26' E 139°44'4 4.4
2017-Jan-14 03:34N 35°25' E 139°39'0 0.0
2017-Jan-13 23:33N 35°25' E 139°39'2 2.3
2017-Jan-13 22:33N 35°23' E 139°40'0 0.0
2017-Jan-13 21:33N 35°23' E 139°40'0 0.0
2017-Jan-13 20:30N 35°23' E 139°40'0 0.1
2017-Jan-13 19:33N 35°23' E 139°40'1110.7
2017-Jan-13 18:33N 35°14' E 139°47'  

Dump ship's entire track history